Time;durP1;ratioP1;P1;durP2;ratioP2;P2;SDS_P1;SDS_P2;PMS_P1;PMS_P2;Temp;Humidity;BMP_temperature;BMP_pressure;BME280_temperature;BME280_humidity;BME280_pressure;Samples;Min_cycle;Max_cycle;Signal;HPM_P1;HPM_P2
2021/09/09 00:01:42;;;;;;;0.00;0.00;;;13.90;59.90;;;;;;5035395;28;20462;-75
2021/09/09 00:04:08;;;;;;;0.00;0.00;;;13.90;60.00;;;;;;5035350;28;20083;-74
2021/09/09 00:06:33;;;;;;;0.10;0.00;;;13.90;60.10;;;;;;5035841;28;20116;-75
2021/09/09 00:08:59;;;;;;;0.00;0.00;;;13.90;60.10;;;;;;5034355;28;20033;-75
2021/09/09 00:11:25;;;;;;;0.00;0.00;;;13.90;60.20;;;;;;5035173;28;20428;-74
2021/09/09 00:13:51;;;;;;;0.00;0.00;;;13.80;60.30;;;;;;5035748;28;20029;-74
2021/09/09 00:16:17;;;;;;;0.00;0.00;;;13.80;60.40;;;;;;5035413;28;20052;-75
2021/09/09 00:18:43;;;;;;;0.00;0.00;;;13.80;60.60;;;;;;5035078;28;20428;-76
2021/09/09 00:21:09;;;;;;;0.10;0.00;;;13.80;60.70;;;;;;5035357;28;20059;-74
2021/09/09 00:23:34;;;;;;;0.00;0.00;;;13.70;60.80;;;;;;5035343;28;20048;-74
2021/09/09 00:26:03;;;;;;;0.00;0.00;;;13.70;60.90;;;;;;5035295;28;20454;-73
2021/09/09 00:28:29;;;;;;;0.00;0.00;;;13.70;61.10;;;;;;5035156;28;20112;-74
2021/09/09 00:30:55;;;;;;;0.00;0.00;;;13.70;61.30;;;;;;5035173;28;20100;-73
2021/09/09 00:33:21;;;;;;;0.00;0.00;;;13.60;61.20;;;;;;5034764;28;20167;-74
2021/09/09 00:35:47;;;;;;;0.00;0.00;;;13.60;61.30;;;;;;5034779;28;20029;-75
2021/09/09 00:38:13;;;;;;;0.10;0.00;;;13.60;61.40;;;;;;5034902;28;20037;-75
2021/09/09 00:40:38;;;;;;;0.00;0.00;;;13.60;61.50;;;;;;5033685;28;20367;-73
2021/09/09 00:43:04;;;;;;;0.00;0.00;;;13.50;61.60;;;;;;5034689;28;20032;-74
2021/09/09 00:45:30;;;;;;;0.00;0.00;;;13.50;61.60;;;;;;5033119;28;20437;-74
2021/09/09 00:47:56;;;;;;;0.00;0.00;;;13.50;61.70;;;;;;5034229;28;20362;-74
2021/09/09 00:50:22;;;;;;;0.00;0.00;;;13.40;61.80;;;;;;5033529;28;20480;-74
2021/09/09 00:52:50;;;;;;;0.00;0.00;;;13.40;61.90;;;;;;5034250;28;20466;-74
2021/09/09 00:55:16;;;;;;;0.00;0.00;;;13.40;62.00;;;;;;5034425;28;20025;-74
2021/09/09 00:57:44;;;;;;;0.00;0.00;;;13.40;62.90;;;;;;5034737;28;20029;-74
2021/09/09 01:00:11;;;;;;;0.00;0.00;;;13.40;62.50;;;;;;5034521;28;20109;-74
2021/09/09 01:02:37;;;;;;;0.00;0.00;;;13.40;62.50;;;;;;5034704;28;20036;-74
2021/09/09 01:05:03;;;;;;;0.00;0.00;;;13.30;62.60;;;;;;5035053;28;20025;-74
2021/09/09 01:07:29;;;;;;;0.00;0.00;;;13.30;62.70;;;;;;5033231;28;20378;-74
2021/09/09 01:09:57;;;;;;;0.00;0.00;;;13.30;62.70;;;;;;5034428;28;20026;-74
2021/09/09 01:12:23;;;;;;;0.00;0.00;;;13.20;62.90;;;;;;5034420;28;20036;-75
2021/09/09 01:14:49;;;;;;;0.00;0.00;;;13.20;63.00;;;;;;5034145;28;20490;-74
2021/09/09 01:17:15;;;;;;;0.00;0.00;;;13.20;63.10;;;;;;5034844;28;20025;-75
2021/09/09 01:19:40;;;;;;;0.00;0.00;;;13.20;63.30;;;;;;5033962;28;20043;-75
2021/09/09 01:22:06;;;;;;;0.00;0.00;;;13.10;63.30;;;;;;5034221;28;20375;-75
2021/09/09 01:24:32;;;;;;;0.00;0.00;;;13.10;63.40;;;;;;5034552;28;20022;-75
2021/09/09 01:27:00;;;;;;;0.00;0.00;;;13.10;63.50;;;;;;5033880;28;20025;-74
2021/09/09 01:29:30;;;;;;;0.00;0.00;;;13.10;63.70;;;;;;5034086;28;20037;-75
2021/09/09 01:31:56;;;;;;;0.00;0.00;;;13.10;63.80;;;;;;5032827;28;20025;-74
2021/09/09 01:34:23;;;;;;;0.00;0.00;;;13.00;63.90;;;;;;5033887;28;20523;-75
2021/09/09 01:36:49;;;;;;;0.00;0.00;;;13.10;64.00;;;;;;5033714;28;20025;-75
2021/09/09 01:39:15;;;;;;;0.00;0.00;;;13.00;64.10;;;;;;5033908;28;20047;-75
2021/09/09 01:41:41;;;;;;;0.00;0.00;;;13.00;64.20;;;;;;5033944;28;20108;-75
2021/09/09 01:44:07;;;;;;;0.05;0.05;;;13.00;64.30;;;;;;5032647;28;20022;-74
2021/09/09 01:46:33;;;;;;;0.00;0.00;;;13.00;64.30;;;;;;5033963;28;20034;-74
2021/09/09 01:49:00;;;;;;;0.00;0.00;;;13.00;64.30;;;;;;5034125;28;20111;-74
2021/09/09 01:51:26;;;;;;;0.00;0.00;;;13.00;64.40;;;;;;5034106;28;20037;-74
2021/09/09 01:53:53;;;;;;;0.00;0.00;;;13.00;64.40;;;;;;5033959;28;20397;-74
2021/09/09 01:56:19;;;;;;;0.00;0.00;;;13.00;64.50;;;;;;5033542;28;20026;-74
2021/09/09 01:58:45;;;;;;;0.00;0.00;;;13.00;64.60;;;;;;5033560;28;20056;-74
2021/09/09 02:01:11;;;;;;;0.00;0.00;;;13.00;64.70;;;;;;5033712;28;20029;-74
2021/09/09 02:03:37;;;;;;;0.00;0.00;;;12.90;64.70;;;;;;5033303;28;20065;-74
2021/09/09 02:06:03;;;;;;;0.00;0.00;;;12.90;64.80;;;;;;5032453;28;20450;-73
2021/09/09 02:08:29;;;;;;;0.00;0.00;;;12.90;64.90;;;;;;5032323;28;20088;-74
2021/09/09 02:10:55;;;;;;;0.00;0.00;;;12.90;65.00;;;;;;5033672;28;20036;-73
2021/09/09 02:13:21;;;;;;;0.00;0.00;;;12.80;65.00;;;;;;5033285;28;20026;-73
2021/09/09 02:15:46;;;;;;;0.00;0.00;;;12.80;65.20;;;;;;5033814;28;20036;-73
2021/09/09 02:18:12;;;;;;;0.00;0.00;;;12.80;65.30;;;;;;5033510;28;20112;-74
2021/09/09 02:20:38;;;;;;;0.00;0.00;;;12.80;65.40;;;;;;5034075;28;20390;-74
2021/09/09 02:23:04;;;;;;;0.00;0.00;;;12.70;65.50;;;;;;5033547;28;20025;-73
2021/09/09 02:25:30;;;;;;;0.00;0.00;;;12.70;65.50;;;;;;5033349;28;20018;-75
2021/09/09 02:27:56;;;;;;;0.00;0.00;;;12.70;65.60;;;;;;5033455;28;20378;-74
2021/09/09 02:30:22;;;;;;;0.00;0.00;;;12.70;65.70;;;;;;5033174;28;20030;-74
2021/09/09 02:32:48;;;;;;;0.00;0.00;;;12.70;65.80;;;;;;5033323;28;20107;-74
2021/09/09 02:35:14;;;;;;;0.00;0.00;;;12.70;65.90;;;;;;5033359;28;20457;-74
2021/09/09 02:37:40;;;;;;;0.00;0.00;;;12.60;65.90;;;;;;5033053;28;20025;-74
2021/09/09 02:40:07;;;;;;;0.00;0.00;;;12.70;66.00;;;;;;5033329;28;20056;-74
2021/09/09 02:42:33;;;;;;;0.00;0.00;;;12.60;66.00;;;;;;5033525;28;20466;-74
2021/09/09 02:44:59;;;;;;;0.00;0.00;;;12.60;66.10;;;;;;5033887;28;20049;-75
2021/09/09 02:47:25;;;;;;;0.00;0.00;;;12.60;66.00;;;;;;5033252;28;20504;-75
2021/09/09 02:49:51;;;;;;;0.00;0.00;;;12.60;66.70;;;;;;5033260;28;20026;-75
2021/09/09 02:52:16;;;;;;;0.00;0.00;;;12.60;66.20;;;;;;5033197;28;20461;-75
2021/09/09 02:54:42;;;;;;;0.00;0.00;;;12.60;66.30;;;;;;5034045;28;20053;-74
2021/09/09 02:57:08;;;;;;;0.00;0.00;;;12.60;66.30;;;;;;5033186;28;20064;-74
2021/09/09 02:59:33;;;;;;;0.00;0.00;;;12.60;66.40;;;;;;5032800;28;20037;-74
2021/09/09 03:01:59;;;;;;;0.00;0.00;;;12.60;66.50;;;;;;5033476;28;20112;-75
2021/09/09 03:04:25;;;;;;;0.00;0.00;;;12.60;66.50;;;;;;5033115;28;20077;-75
2021/09/09 03:06:51;;;;;;;0.00;0.00;;;12.60;66.50;;;;;;5032775;28;20053;-74
2021/09/09 03:09:16;;;;;;;0.00;0.00;;;12.60;66.60;;;;;;5052074;28;20117;-75
2021/09/09 03:11:42;;;;;;;0.00;0.00;;;12.60;66.60;;;;;;5035393;28;20047;-75
2021/09/09 03:14:08;;;;;;;0.00;0.00;;;12.60;66.60;;;;;;5036226;28;20422;-74
2021/09/09 03:16:33;;;;;;;0.00;0.00;;;12.60;66.60;;;;;;5036508;28;20453;-77
2021/09/09 03:18:59;;;;;;;0.00;0.00;;;12.60;66.60;;;;;;5036491;28;20068;-75
2021/09/09 03:21:25;;;;;;;0.00;0.00;;;12.60;66.60;;;;;;5036535;28;20025;-75
2021/09/09 03:23:51;;;;;;;0.00;0.00;;;12.50;66.60;;;;;;5036696;28;20025;-75
2021/09/09 03:26:16;;;;;;;0.00;0.00;;;12.50;66.70;;;;;;5036431;28;20021;-74
2021/09/09 03:28:42;;;;;;;0.00;0.00;;;12.50;66.70;;;;;;5036052;28;20057;-76
2021/09/09 03:31:08;;;;;;;0.00;0.00;;;12.50;66.80;;;;;;5035311;28;20033;-75
2021/09/09 03:33:33;;;;;;;0.00;0.00;;;12.50;66.80;;;;;;5036117;28;20025;-79
2021/09/09 03:35:59;;;;;;;0.00;0.00;;;12.50;66.90;;;;;;5035995;28;20068;-75
2021/09/09 03:38:25;;;;;;;0.00;0.00;;;12.50;66.90;;;;;;5036243;28;20030;-74
2021/09/09 03:40:50;;;;;;;0.00;0.00;;;12.50;67.00;;;;;;5036681;28;20029;-74
2021/09/09 03:43:16;;;;;;;0.00;0.00;;;12.50;67.10;;;;;;5036064;28;20033;-74
2021/09/09 03:45:42;;;;;;;0.00;0.00;;;12.60;67.10;;;;;;5036028;28;20057;-75
2021/09/09 03:48:07;;;;;;;0.00;0.00;;;12.50;67.00;;;;;;5036016;28;20036;-75
2021/09/09 03:50:33;;;;;;;0.00;0.00;;;12.60;67.10;;;;;;5035588;28;20041;-75
2021/09/09 03:52:59;;;;;;;0.00;0.00;;;12.60;67.10;;;;;;5035856;28;20045;-74
2021/09/09 03:55:25;;;;;;;0.00;0.00;;;12.60;67.10;;;;;;5036061;28;20130;-75
2021/09/09 03:57:50;;;;;;;0.00;0.00;;;12.60;67.00;;;;;;5035642;28;20029;-75
2021/09/09 04:00:17;;;;;;;0.00;0.00;;;12.60;67.00;;;;;;5035550;28;20056;-75
2021/09/09 04:02:45;;;;;;;0.00;0.00;;;12.70;67.00;;;;;;5035428;28;20021;-74
2021/09/09 04:05:11;;;;;;;0.00;0.00;;;12.70;67.00;;;;;;5035781;28;20056;-75
2021/09/09 04:07:37;;;;;;;0.00;0.00;;;12.80;66.90;;;;;;5034156;28;20049;-75
2021/09/09 04:10:03;;;;;;;0.00;0.00;;;12.90;66.80;;;;;;5035278;28;20030;-75
2021/09/09 04:12:29;;;;;;;0.00;0.00;;;12.90;66.70;;;;;;5035248;28;20056;-76
2021/09/09 04:14:55;;;;;;;0.00;0.00;;;13.00;66.60;;;;;;5035430;28;20021;-76
2021/09/09 04:17:20;;;;;;;0.00;0.00;;;13.00;66.50;;;;;;5035441;28;20021;-75
2021/09/09 04:19:46;;;;;;;0.00;0.00;;;13.00;66.50;;;;;;5035247;28;20045;-75
2021/09/09 04:22:12;;;;;;;0.00;0.00;;;13.10;66.50;;;;;;5034195;28;20076;-74
2021/09/09 04:24:38;;;;;;;0.00;0.00;;;13.10;66.40;;;;;;5034989;28;20026;-75
2021/09/09 04:27:04;;;;;;;0.00;0.00;;;13.20;66.40;;;;;;5035257;28;20029;-75
2021/09/09 04:29:31;;;;;;;0.00;0.00;;;13.20;66.30;;;;;;5034448;28;20466;-74
2021/09/09 04:31:57;;;;;;;0.00;0.00;;;13.30;66.40;;;;;;5034806;28;20362;-75
2021/09/09 04:34:22;;;;;;;0.00;0.00;;;13.40;66.40;;;;;;5035264;28;20029;-75
2021/09/09 04:36:48;;;;;;;0.00;0.00;;;13.40;66.30;;;;;;5034941;28;20023;-75
2021/09/09 04:39:14;;;;;;;0.00;0.00;;;13.50;66.20;;;;;;5033460;28;20025;-74
2021/09/09 04:41:39;;;;;;;0.00;0.00;;;13.60;66.10;;;;;;5034625;28;20030;-76
2021/09/09 04:44:06;;;;;;;0.00;0.00;;;13.80;66.00;;;;;;5034458;28;20113;-74
2021/09/09 04:46:32;;;;;;;0.00;0.00;;;13.90;65.80;;;;;;5034669;28;20033;-74
2021/09/09 04:48:58;;;;;;;0.00;0.00;;;14.00;65.40;;;;;;5034662;28;20116;-75
2021/09/09 04:51:24;;;;;;;0.00;0.00;;;14.20;65.30;;;;;;5034592;28;20108;-76
2021/09/09 04:53:51;;;;;;;0.00;0.00;;;14.30;65.10;;;;;;5034948;28;20433;-75
2021/09/09 04:56:17;;;;;;;0.00;0.00;;;14.40;64.90;;;;;;5034645;28;20043;-76
2021/09/09 04:58:42;;;;;;;0.00;0.00;;;14.40;64.60;;;;;;5034340;28;20408;-75
2021/09/09 05:01:08;;;;;;;0.00;0.00;;;14.50;64.50;;;;;;5034162;28;20052;-75
2021/09/09 05:03:34;;;;;;;0.00;0.00;;;14.60;64.40;;;;;;5033183;28;20462;-74
2021/09/09 05:05:59;;;;;;;0.00;0.00;;;14.70;64.40;;;;;;5034195;28;20070;-75
2021/09/09 05:08:25;;;;;;;0.00;0.00;;;14.70;64.20;;;;;;5034133;28;20072;-76
2021/09/09 05:10:51;;;;;;;0.00;0.00;;;14.80;64.20;;;;;;5034400;28;20029;-75
2021/09/09 05:13:17;;;;;;;0.00;0.00;;;14.90;64.20;;;;;;5034585;28;20052;-75
2021/09/09 05:15:43;;;;;;;0.00;0.00;;;14.90;64.20;;;;;;5033882;28;20051;-78
2021/09/09 05:18:09;;;;;;;0.00;0.00;;;15.00;64.20;;;;;;5034141;28;20480;-76
2021/09/09 05:20:34;;;;;;;0.00;0.00;;;15.10;64.20;;;;;;5032754;28;20029;-75
2021/09/09 05:23:00;;;;;;;0.30;0.03;;;15.20;64.20;;;;;;5034746;28;20043;-75
2021/09/09 05:25:26;;;;;;;0.00;0.00;;;15.30;64.10;;;;;;5033993;28;20461;-76
2021/09/09 05:27:52;;;;;;;0.00;0.00;;;15.40;64.00;;;;;;5034154;28;20032;-75
2021/09/09 05:30:18;;;;;;;0.00;0.00;;;15.50;63.90;;;;;;5033308;28;20065;-75
2021/09/09 05:32:43;;;;;;;0.00;0.00;;;15.60;63.80;;;;;;5034381;28;20029;-75
2021/09/09 05:35:10;;;;;;;0.00;0.00;;;15.70;63.80;;;;;;5034155;28;20029;-75
2021/09/09 05:37:36;;;;;;;0.00;0.00;;;15.80;63.70;;;;;;5032811;28;20386;-75
2021/09/09 05:40:02;;;;;;;0.00;0.00;;;15.90;63.60;;;;;;5033953;28;20037;-74
2021/09/09 05:42:28;;;;;;;0.00;0.00;;;16.10;63.50;;;;;;5033810;28;20025;-74
2021/09/09 05:44:54;;;;;;;0.00;0.00;;;16.20;63.20;;;;;;5033987;28;20075;-74
2021/09/09 05:47:20;;;;;;;0.00;0.00;;;16.40;63.10;;;;;;5034045;28;20072;-75
2021/09/09 05:49:46;;;;;;;0.00;0.00;;;16.50;63.00;;;;;;5033334;28;20035;-74
2021/09/09 05:52:12;;;;;;;0.00;0.00;;;16.60;62.80;;;;;;5033545;28;20109;-75
2021/09/09 05:54:38;;;;;;;0.00;0.00;;;16.70;62.50;;;;;;5034216;28;20516;-75
2021/09/09 05:57:04;;;;;;;0.00;0.00;;;16.80;62.30;;;;;;5032186;28;20191;-75
2021/09/09 05:59:30;;;;;;;0.00;0.00;;;16.90;62.10;;;;;;5033586;28;20125;-75
2021/09/09 06:01:57;;;;;;;0.00;0.00;;;17.10;62.00;;;;;;5032409;28;20179;-75
2021/09/09 06:04:26;;;;;;;0.00;0.00;;;17.20;61.80;;;;;;5032313;28;20040;-75
2021/09/09 06:06:52;;;;;;;0.00;0.00;;;17.30;61.60;;;;;;5032250;28;20049;-75
2021/09/09 06:09:18;;;;;;;0.00;0.00;;;17.50;61.60;;;;;;5033381;28;20386;-74
2021/09/09 06:11:44;;;;;;;0.00;0.00;;;17.60;61.40;;;;;;5033496;28;20469;-75
2021/09/09 06:14:10;;;;;;;0.00;0.00;;;17.80;61.10;;;;;;5048668;28;20025;-75
2021/09/09 06:16:37;;;;;;;0.00;0.00;;;17.90;61.00;;;;;;5033703;28;20025;-75
2021/09/09 06:19:03;;;;;;;0.00;0.00;;;18.10;60.80;;;;;;5033206;28;20511;-75
2021/09/09 06:21:28;;;;;;;0.00;0.00;;;18.20;60.60;;;;;;5033320;28;20026;-75
2021/09/09 06:23:54;;;;;;;0.00;0.00;;;18.30;60.30;;;;;;5033606;28;20029;-75
2021/09/09 06:26:20;;;;;;;0.00;0.00;;;18.50;60.10;;;;;;5033160;28;20116;-75
2021/09/09 06:28:46;;;;;;;0.00;0.00;;;18.60;60.00;;;;;;5032235;28;20034;-75
2021/09/09 06:31:12;;;;;;;0.00;0.00;;;18.70;59.90;;;;;;5033413;28;20048;-74
2021/09/09 06:33:38;;;;;;;0.00;0.00;;;18.80;59.90;;;;;;5033430;28;20109;-76
2021/09/09 06:36:04;;;;;;;0.00;0.00;;;19.00;59.70;;;;;;5033924;28;20399;-74
2021/09/09 06:38:31;;;;;;;0.00;0.00;;;19.10;59.70;;;;;;5033257;28;20034;-76
2021/09/09 06:40:57;;;;;;;0.00;0.00;;;19.30;59.30;;;;;;5033007;28;20072;-75
2021/09/09 06:43:22;;;;;;;0.00;0.00;;;19.30;59.00;;;;;;5035376;28;20025;-75
2021/09/09 06:45:48;;;;;;;0.00;0.00;;;19.50;58.90;;;;;;5036838;28;20026;-76
2021/09/09 06:48:14;;;;;;;0.00;0.00;;;19.60;58.60;;;;;;5035810;28;20037;-76
2021/09/09 06:50:40;;;;;;;0.03;0.00;;;19.70;58.50;;;;;;5036723;28;20029;-76
2021/09/09 06:53:06;;;;;;;0.00;0.00;;;19.90;58.50;;;;;;5052151;28;20068;-76
2021/09/09 06:55:32;;;;;;;0.00;0.00;;;20.00;58.20;;;;;;5036043;28;20063;-75
2021/09/09 06:57:58;;;;;;;0.00;0.00;;;20.10;58.00;;;;;;5036744;28;20490;-74
2021/09/09 07:00:24;;;;;;;0.00;0.00;;;20.30;57.80;;;;;;5036482;28;20040;-75
2021/09/09 07:02:50;;;;;;;0.00;0.00;;;20.40;57.50;;;;;;5036851;28;20021;-75
2021/09/09 07:05:16;;;;;;;0.00;0.00;;;20.50;57.20;;;;;;5035612;28;20499;-75
2021/09/09 07:07:42;;;;;;;0.00;0.00;;;20.70;56.70;;;;;;5036458;28;20043;-74
2021/09/09 07:10:09;;;;;;;0.00;0.00;;;20.90;56.60;;;;;;5035345;28;20454;-74
2021/09/09 07:12:34;;;;;;;0.00;0.00;;;21.10;57.40;;;;;;5036121;28;20105;-76
2021/09/09 07:15:01;;;;;;;0.00;0.00;;;21.20;57.80;;;;;;5035400;28;20564;-75
2021/09/09 07:17:26;;;;;;;0.00;0.00;;;21.30;57.70;;;;;;5052602;28;20331;-75
2021/09/09 07:19:53;;;;;;;0.00;0.00;;;21.50;57.60;;;;;;5036440;28;20048;-75
2021/09/09 07:22:19;;;;;;;0.00;0.00;;;21.60;57.50;;;;;;5036434;28;20021;-76
2021/09/09 07:24:45;;;;;;;0.00;0.00;;;21.80;57.20;;;;;;5036285;28;20025;-75
2021/09/09 07:27:10;;;;;;;0.00;0.00;;;21.90;57.00;;;;;;5036645;28;20060;-76
2021/09/09 07:29:36;;;;;;;0.00;0.00;;;22.10;56.90;;;;;;5035016;28;20079;-75
2021/09/09 07:32:03;;;;;;;0.00;0.00;;;22.30;56.90;;;;;;5035974;28;20026;-75
2021/09/09 07:34:29;;;;;;;0.00;0.00;;;22.50;56.70;;;;;;5034328;28;20075;-75
2021/09/09 07:37:05;;;;;;;0.00;0.00;;;22.60;56.40;;;;;;5036427;28;20022;-74
2021/09/09 07:39:31;;;;;;;0.00;0.00;;;22.80;55.70;;;;;;5035781;28;20116;-75
2021/09/09 07:41:56;;;;;;;0.00;0.00;;;23.10;55.60;;;;;;5036069;28;20108;-75
2021/09/09 07:44:22;;;;;;;0.00;0.00;;;23.20;55.20;;;;;;5035789;28;20478;-76
2021/09/09 07:46:48;;;;;;;0.00;0.00;;;23.40;54.80;;;;;;5035987;28;20022;-76
2021/09/09 07:49:15;;;;;;;0.03;0.00;;;23.70;54.30;;;;;;5035707;28;20025;-75
2021/09/09 07:51:42;;;;;;;0.00;0.00;;;23.90;54.00;;;;;;5034608;28;20036;-75
2021/09/09 07:54:08;;;;;;;0.00;0.00;;;24.00;53.70;;;;;;5035482;28;20052;-76
2021/09/09 07:56:44;;;;;;;0.00;0.00;;;24.30;53.20;;;;;;5034677;28;20025;-75
2021/09/09 07:59:20;;;;;;;0.00;0.00;;;24.60;52.80;;;;;;5051834;28;20436;-76
2021/09/09 08:01:49;;;;;;;0.00;0.00;;;24.90;52.70;;;;;;5050759;28;20026;-76
2021/09/09 08:04:17;;;;;;;0.00;0.00;;;25.10;52.30;;;;;;5034521;28;20029;-74
2021/09/09 08:06:44;;;;;;;0.00;0.00;;;25.40;52.00;;;;;;5035714;28;20072;-75
2021/09/09 08:09:11;;;;;;;0.00;0.00;;;25.60;51.20;;;;;;5036043;28;20362;-74
2021/09/09 08:11:37;;;;;;;0.00;0.00;;;25.90;51.10;;;;;;5035538;28;20057;-75
2021/09/09 08:14:03;;;;;;;0.00;0.00;;;26.10;50.70;;;;;;5034118;28;20473;-75
2021/09/09 08:16:29;;;;;;;0.00;0.00;;;26.40;50.40;;;;;;5034650;28;20401;-74
2021/09/09 08:18:54;;;;;;;0.00;0.00;;;26.60;49.90;;;;;;5034773;28;20048;-76
2021/09/09 08:21:20;;;;;;;0.00;0.00;;;26.90;49.40;;;;;;5036193;28;20513;-75
2021/09/09 08:23:46;;;;;;;0.20;0.00;;;27.20;48.60;;;;;;5035495;28;20155;-74
2021/09/09 08:26:12;;;;;;;0.00;0.00;;;27.50;48.20;;;;;;5035245;28;20023;-76
2021/09/09 08:28:38;;;;;;;0.00;0.00;;;27.80;47.90;;;;;;5034291;28;20116;-75
2021/09/09 08:31:05;;;;;;;0.00;0.00;;;28.00;47.50;;;;;;5035457;28;20071;-75
2021/09/09 08:33:31;;;;;;;0.00;0.00;;;28.30;47.20;;;;;;5035339;28;20116;-75
2021/09/09 08:35:57;;;;;;;0.00;0.00;;;28.70;46.80;;;;;;5035833;28;20032;-76
2021/09/09 08:38:22;;;;;;;0.00;0.00;;;29.00;46.70;;;;;;5036178;28;20041;-75
2021/09/09 08:40:50;;;;;;;0.00;0.00;;;29.80;46.70;;;;;;5033739;28;20060;-76
2021/09/09 08:43:17;;;;;;;0.00;0.00;;;30.80;45.90;;;;;;5034847;28;20477;-76
2021/09/09 08:45:51;;;;;;;0.00;0.00;;;31.80;44.80;;;;;;5035581;28;20030;-75
2021/09/09 08:48:17;;;;;;;0.00;0.00;;;32.70;43.60;;;;;;5035014;28;20384;-77
2021/09/09 08:50:43;;;;;;;0.00;0.00;;;33.70;42.80;;;;;;5034759;28;20105;-77
2021/09/09 08:53:11;;;;;;;0.00;0.00;;;34.50;41.70;;;;;;5035441;28;20111;-76
2021/09/09 08:55:37;;;;;;;0.00;0.00;;;35.20;40.70;;;;;;5035648;28;20104;-76
2021/09/09 08:58:05;;;;;;;0.03;0.03;;;35.90;39.80;;;;;;5035668;28;20124;-75
2021/09/09 09:00:31;;;;;;;0.00;0.00;;;36.50;39.10;;;;;;5035438;28;20033;-77
2021/09/09 09:03:00;;;;;;;0.00;0.00;;;37.10;38.40;;;;;;5035235;28;20120;-77
2021/09/09 09:05:26;;;;;;;0.00;0.00;;;37.60;37.70;;;;;;5032527;28;20033;-75
2021/09/09 09:08:03;;;;;;;0.00;0.00;;;38.10;37.20;;;;;;5034630;28;20029;-77
2021/09/09 09:10:30;;;;;;;0.00;0.00;;;38.50;36.50;;;;;;5049824;28;20079;-75
2021/09/09 09:12:56;;;;;;;0.03;0.03;;;39.00;36.50;;;;;;5034674;28;20112;-75
2021/09/09 09:15:28;;;;;;;0.00;0.00;;;39.30;36.00;;;;;;5034528;28;20112;-76
2021/09/09 09:18:00;;;;;;;0.00;0.00;;;39.70;35.60;;;;;;5034126;28;20052;-76
2021/09/09 09:20:54;;;;;;;0.00;0.00;;;39.90;35.10;;;;;;5033958;28;20087;-75
2021/09/09 09:23:26;;;;;;;0.10;0.10;;;40.20;34.80;;;;;;5032126;28;20045;-78
2021/09/09 09:25:59;;;;;;;0.00;0.00;;;40.60;34.70;;;;;;5034062;28;20064;-76
2021/09/09 09:28:55;;;;;;;0.10;0.10;;;40.90;34.30;;;;;;5034437;28;20029;-78
2021/09/09 09:31:42;;;;;;;0.00;0.00;;;41.20;34.00;;;;;;5032935;28;20139;-75
2021/09/09 09:34:10;;;;;;;0.00;0.00;;;41.60;33.70;;;;;;5034255;28;20065;-76
2021/09/09 09:36:38;;;;;;;0.10;0.10;;;42.00;33.50;;;;;;5032363;28;20022;-77
2021/09/09 09:39:05;;;;;;;0.10;0.10;;;42.30;33.20;;;;;;5048806;28;20041;-76
2021/09/09 09:41:30;;;;;;;0.10;0.10;;;42.60;32.90;;;;;;5034263;28;20029;-76
2021/09/09 09:44:05;;;;;;;0.00;0.00;;;42.70;32.70;;;;;;5031171;28;20028;-77
2021/09/09 09:46:39;;;;;;;0.03;0.03;;;42.90;32.60;;;;;;5032621;28;20037;-77
2021/09/09 09:49:27;;;;;;;0.00;0.00;;;43.10;32.60;;;;;;5033313;28;20039;-77
2021/09/09 09:51:55;;;;;;;0.00;0.00;;;43.10;32.50;;;;;;5032745;28;20108;-75
2021/09/09 09:54:22;;;;;;;0.00;0.00;;;43.10;32.40;;;;;;5033167;28;20064;-76
2021/09/09 09:56:49;;;;;;;0.10;0.10;;;43.40;32.50;;;;;;5032421;28;20034;-75
2021/09/09 09:59:16;;;;;;;0.10;0.10;;;43.50;32.20;;;;;;5032206;28;20033;-76
2021/09/09 10:01:43;;;;;;;0.00;0.00;;;43.60;32.10;;;;;;5031713;28;20040;-77
2021/09/09 10:04:12;;;;;;;0.10;0.10;;;43.80;31.70;;;;;;5031812;28;20029;-76
2021/09/09 10:06:38;;;;;;;0.10;0.10;;;44.00;31.40;;;;;;5032202;28;20029;-79
2021/09/09 10:09:06;;;;;;;0.03;0.03;;;44.20;31.20;;;;;;5033606;28;20031;-78
2021/09/09 10:11:32;;;;;;;0.10;0.10;;;44.50;31.10;;;;;;5034168;28;20025;-75
2021/09/09 10:14:01;;;;;;;0.10;0.10;;;44.70;31.10;;;;;;5031048;28;20108;-77
2021/09/09 10:16:32;;;;;;;0.10;0.10;;;44.90;30.90;;;;;;5032558;28;20109;-76
2021/09/09 10:18:58;;;;;;;0.10;0.10;;;45.00;30.50;;;;;;5037840;28;20347;-75
2021/09/09 10:21:44;;;;;;;0.10;0.10;;;45.10;30.40;;;;;;5038061;28;20035;-76
2021/09/09 10:24:30;;;;;;;0.10;0.10;;;45.20;30.00;;;;;;5036475;28;20060;-77
2021/09/09 10:27:20;;;;;;;0.10;0.10;;;45.40;30.00;;;;;;5037226;28;20029;-77
2021/09/09 10:30:00;;;;;;;0.10;0.10;;;45.60;30.10;;;;;;5036058;28;20025;-78
2021/09/09 10:32:28;;;;;;;0.10;0.10;;;45.80;30.00;;;;;;5035963;28;20102;-75
2021/09/09 10:35:16;;;;;;;0.10;0.10;;;46.00;29.90;;;;;;5036111;28;20499;-76
2021/09/09 10:37:53;;;;;;;0.10;0.10;;;46.20;29.80;;;;;;5036353;28;20465;-77
2021/09/09 10:40:28;;;;;;;0.10;0.10;;;46.50;29.50;;;;;;5034143;28;20140;-75
2021/09/09 10:42:54;;;;;;;0.20;0.20;;;46.70;29.40;;;;;;5037248;28;20116;-77
2021/09/09 10:45:36;;;;;;;0.10;0.10;;;46.80;29.40;;;;;;5036994;28;20036;-77
2021/09/09 10:48:08;;;;;;;0.20;0.20;;;46.90;29.40;;;;;;5035341;28;20029;-77
2021/09/09 10:50:35;;;;;;;0.10;0.10;;;47.00;29.20;;;;;;5035544;28;20029;-76
2021/09/09 10:53:04;;;;;;;0.10;0.10;;;47.00;29.10;;;;;;5036634;28;20056;-75
2021/09/09 10:55:31;;;;;;;0.10;0.10;;;47.00;28.70;;;;;;5037002;28;20026;-76
2021/09/09 10:58:13;;;;;;;0.10;0.10;;;47.00;28.80;;;;;;5037097;28;20083;-77
2021/09/09 11:01:24;;;;;;;0.13;0.13;;;47.00;28.80;;;;;;5036931;28;20029;-74
2021/09/09 11:03:45;;;;;;;0.10;0.10;;;47.20;28.80;;;;;;5033706;28;20561;-75
2021/09/09 11:06:14;;;;;;;0.10;0.10;;;47.40;28.80;;;;;;5036029;28;20029;-77
2021/09/09 11:08:43;;;;;;;0.13;0.13;;;47.50;28.80;;;;;;5036584;28;20120;-75
2021/09/09 11:11:34;;;;;;;0.20;0.20;;;47.60;28.70;;;;;;5036832;28;20029;-77
2021/09/09 11:14:08;;;;;;;0.20;0.20;;;47.80;28.70;;;;;;5036973;28;20462;-75
2021/09/09 11:16:37;;;;;;;0.20;0.20;;;47.90;28.70;;;;;;5036400;28;20029;-76
2021/09/09 11:19:04;;;;;;;0.10;0.10;;;48.00;28.70;;;;;;5036472;28;20044;-75
2021/09/09 11:21:35;;;;;;;0.10;0.10;;;48.00;28.60;;;;;;5036388;28;20473;-76
2021/09/09 11:24:06;;;;;;;0.10;0.10;;;48.00;28.40;;;;;;5036357;28;20128;-76
2021/09/09 11:26:33;;;;;;;0.17;0.17;;;48.00;28.30;;;;;;5035013;28;20021;-78
2021/09/09 11:29:00;;;;;;;0.20;0.20;;;48.10;28.50;;;;;;5035022;28;20378;-76
2021/09/09 11:31:31;;;;;;;0.20;0.20;;;48.10;28.50;;;;;;5036784;28;20036;-76
2021/09/09 11:34:06;;;;;;;0.20;0.20;;;48.10;28.30;;;;;;5036215;28;20036;-77
2021/09/09 11:36:38;;;;;;;0.10;0.10;;;48.10;28.40;;;;;;5035901;28;20159;-75
2021/09/09 11:39:11;;;;;;;;;;;48.10;28.40;;;;;;5035434;28;20041;-76
2021/09/09 11:41:38;;;;;;;0.20;0.20;;;48.10;28.70;;;;;;5036421;28;19998;-76
2021/09/09 11:44:06;;;;;;;0.20;0.20;;;48.30;28.30;;;;;;5035988;28;20374;-76
2021/09/09 11:46:51;;;;;;;0.20;0.20;;;48.30;28.20;;;;;;5036247;28;20017;-77
2021/09/09 11:49:22;;;;;;;0.20;0.20;;;48.30;28.10;;;;;;5036123;28;20102;-76
2021/09/09 11:51:52;;;;;;;0.10;0.10;;;48.30;28.00;;;;;;5034669;28;20087;-76
2021/09/09 11:54:24;;;;;;;0.20;0.20;;;48.30;28.20;;;;;;5036821;28;20438;-77
2021/09/09 11:56:51;;;;;;;0.10;0.10;;;48.30;28.20;;;;;;5036098;28;20083;-76
2021/09/09 11:59:18;;;;;;;0.10;0.10;;;48.30;28.20;;;;;;5035840;28;20041;-76
2021/09/09 12:01:58;;;;;;;0.10;0.10;;;48.30;28.30;;;;;;5034524;28;20358;-76
2021/09/09 12:04:24;;;;;;;0.20;0.20;;;48.30;28.10;;;;;;5035489;28;20478;-76
2021/09/09 12:06:50;;;;;;;0.20;0.20;;;48.40;28.50;;;;;;5035297;28;20469;-77
2021/09/09 12:09:24;;;;;;;0.20;0.20;;;48.30;27.80;;;;;;5034964;28;20033;-77
2021/09/09 12:12:19;;;;;;;0.20;0.20;;;48.30;27.80;;;;;;5035556;28;20018;-76
2021/09/09 12:14:55;;;;;;;0.20;0.20;;;48.20;27.80;;;;;;5034836;28;20041;-76
2021/09/09 12:17:21;;;;;;;0.20;0.20;;;48.20;27.90;;;;;;5035988;28;20026;-77
2021/09/09 12:19:51;;;;;;;0.13;0.13;;;48.20;27.90;;;;;;5050731;28;20036;-76
2021/09/09 12:22:20;;;;;;;0.10;0.10;;;48.20;28.00;;;;;;5035459;28;20120;-77
2021/09/09 12:24:47;;;;;;;0.13;0.13;;;48.30;28.00;;;;;;5034860;28;20017;-76
2021/09/09 12:27:18;;;;;;;0.13;0.13;;;48.20;28.10;;;;;;5034523;28;20528;-76
2021/09/09 12:29:44;;;;;;;0.10;0.10;;;48.20;28.10;;;;;;5033969;28;20100;-76
2021/09/09 12:32:30;;;;;;;0.10;0.10;;;48.10;28.00;;;;;;5035089;28;20382;-76
2021/09/09 12:35:18;;;;;;;0.10;0.10;;;48.10;27.90;;;;;;5035868;28;20080;-77
2021/09/09 12:37:44;;;;;;;0.10;0.10;;;48.00;27.80;;;;;;5034866;28;20113;-75
2021/09/09 12:40:11;;;;;;;0.10;0.10;;;47.90;27.80;;;;;;5034618;28;20122;-76
2021/09/09 12:42:38;;;;;;;0.20;0.20;;;47.80;27.80;;;;;;5035230;28;20033;-76
2021/09/09 12:45:08;;;;;;;0.10;0.10;;;47.80;27.80;;;;;;5034525;28;20493;-76
2021/09/09 12:47:35;;;;;;;0.10;0.10;;;47.80;27.80;;;;;;5034708;28;20436;-76
2021/09/09 12:50:35;;;;;;;0.10;0.10;;;47.80;27.70;;;;;;5034577;28;20129;-75
2021/09/09 12:53:00;;;;;;;0.10;0.10;;;47.80;27.70;;;;;;5034845;28;20124;-76